createdAt,value
2022-10-17T00:01:44.020Z,14.93
2022-10-17T00:06:36.740Z,15.52
2022-10-17T00:09:03.370Z,15.13
2022-10-17T00:13:56.079Z,12.57
2022-10-17T00:16:29.883Z,15.00
2022-10-17T00:18:56.235Z,16.67
2022-10-17T00:21:23.091Z,20.27
2022-10-17T00:23:49.747Z,14.13
2022-10-17T00:31:10.207Z,15.13
2022-10-17T00:33:36.933Z,17.30
2022-10-17T00:43:27.175Z,15.30
2022-10-17T00:48:23.280Z,16.35
2022-10-17T00:50:49.947Z,19.15
2022-10-17T00:53:16.637Z,16.38
2022-10-17T00:55:49.468Z,20.73
2022-10-17T00:58:16.399Z,15.73
2022-10-17T01:00:42.985Z,19.95
2022-10-17T01:05:35.697Z,16.08
2022-10-17T01:08:02.324Z,21.23
2022-10-17T01:13:15.562Z,14.80
2022-10-17T01:16:02.425Z,19.45
2022-10-17T01:18:34.593Z,19.35
2022-10-17T01:21:04.407Z,16.20
2022-10-17T01:23:49.478Z,19.98
2022-10-17T01:26:39.001Z,18.77
2022-10-17T01:29:24.129Z,18.45
2022-10-17T01:31:53.490Z,18.58
2022-10-17T01:34:28.579Z,20.48
2022-10-17T01:36:54.877Z,19.80
2022-10-17T01:39:41.635Z,17.95
2022-10-17T01:42:15.147Z,19.05
2022-10-17T01:44:48.272Z,20.77
2022-10-17T01:47:17.653Z,16.83
2022-10-17T01:49:45.550Z,19.85
2022-10-17T01:52:18.240Z,21.08
2022-10-17T01:54:46.525Z,18.38
2022-10-17T01:57:23.290Z,17.98
2022-10-17T01:59:52.102Z,19.35
2022-10-17T02:02:21.226Z,18.98
2022-10-17T02:04:49.943Z,24.75
2022-10-17T02:07:16.432Z,22.05
2022-10-17T02:09:43.046Z,18.92
2022-10-17T02:14:44.488Z,19.23
2022-10-17T02:17:20.258Z,18.73
2022-10-17T02:19:54.272Z,18.35
2022-10-17T02:22:35.194Z,20.77
2022-10-17T02:25:20.223Z,24.45
2022-10-17T02:27:55.842Z,19.83
2022-10-17T02:30:45.007Z,21.67
2022-10-17T02:33:14.794Z,20.80
2022-10-17T02:35:43.438Z,19.90
2022-10-17T02:38:10.607Z,21.73
2022-10-17T02:40:37.629Z,25.45
2022-10-17T02:43:04.221Z,18.60
2022-10-17T02:47:57.009Z,18.85
2022-10-17T02:53:01.102Z,23.58
2022-10-17T02:55:32.704Z,21.70
2022-10-17T02:58:01.042Z,21.48
2022-10-17T03:00:28.721Z,21.10
2022-10-17T03:02:55.988Z,19.67
2022-10-17T03:05:23.903Z,20.00
2022-10-17T03:07:50.494Z,19.95
2022-10-17T03:10:16.924Z,20.40
2022-10-17T03:12:43.385Z,18.92
2022-10-17T03:15:10.646Z,18.05
2022-10-17T03:17:37.557Z,16.98
2022-10-17T03:20:04.592Z,19.95
2022-10-17T03:22:31.440Z,16.98
2022-10-17T03:24:59.375Z,18.58
2022-10-17T03:27:25.740Z,16.90
2022-10-17T03:29:52.027Z,16.10
2022-10-17T03:32:19.096Z,18.42
2022-10-17T03:34:45.392Z,20.00
2022-10-17T03:39:39.712Z,17.58
2022-10-17T03:42:06.161Z,18.33
2022-10-17T03:44:32.593Z,18.30
2022-10-17T03:46:59.452Z,16.35
2022-10-17T03:49:25.842Z,20.60
2022-10-17T03:51:52.856Z,17.48
2022-10-17T03:54:19.217Z,16.63
2022-10-17T03:56:45.558Z,20.88
2022-10-17T03:59:15.953Z,17.83
2022-10-17T04:01:48.824Z,19.02
2022-10-17T04:04:15.264Z,15.32
2022-10-17T04:06:41.620Z,19.27
2022-10-17T04:09:10.225Z,20.20
2022-10-17T04:12:08.843Z,19.73
2022-10-17T04:14:36.724Z,20.20
2022-10-17T04:17:03.360Z,24.95
2022-10-17T04:19:30.665Z,22.77
2022-10-17T04:21:57.050Z,20.63
2022-10-17T04:26:52.655Z,18.23
2022-10-17T04:29:21.826Z,19.40
2022-10-17T04:31:52.184Z,22.48
2022-10-17T04:34:23.594Z,20.27
2022-10-17T04:36:51.785Z,21.58
2022-10-17T04:39:18.394Z,21.98
2022-10-17T04:41:47.608Z,17.75
2022-10-17T04:44:14.491Z,20.33
2022-10-17T04:46:46.910Z,20.92
2022-10-17T04:49:13.173Z,17.58
2022-10-17T04:51:42.854Z,16.80
2022-10-17T04:54:16.616Z,19.05
2022-10-17T04:56:47.146Z,17.83
2022-10-17T04:59:13.552Z,23.08
2022-10-17T05:01:41.914Z,19.35
2022-10-17T05:04:08.203Z,20.60
2022-10-17T05:06:35.182Z,19.20
2022-10-17T05:09:15.878Z,17.30
2022-10-17T05:11:43.266Z,19.13
2022-10-17T05:14:10.159Z,22.08
2022-10-17T05:16:37.687Z,18.30
2022-10-17T05:19:04.797Z,14.65
2022-10-17T05:21:37.356Z,19.48
2022-10-17T05:24:06.163Z,16.83
2022-10-17T05:26:32.681Z,17.85
2022-10-17T05:29:00.429Z,15.95
2022-10-17T05:31:27.051Z,21.45
2022-10-17T05:33:53.578Z,17.23
2022-10-17T05:36:19.874Z,18.20
2022-10-17T05:38:51.052Z,15.90
2022-10-17T05:41:17.931Z,15.63
2022-10-17T05:43:44.313Z,16.80
2022-10-17T05:46:14.891Z,18.40
2022-10-17T05:48:41.197Z,19.02
2022-10-17T05:51:09.536Z,16.67
2022-10-17T05:53:38.583Z,17.73
2022-10-17T05:56:08.625Z,16.95
2022-10-17T05:58:49.658Z,19.67
2022-10-17T06:01:33.254Z,16.98
2022-10-17T06:08:52.206Z,15.15
2022-10-17T06:11:25.092Z,19.42
2022-10-17T06:16:22.683Z,18.75
2022-10-17T06:21:25.184Z,23.42
2022-10-17T06:23:55.430Z,17.83
2022-10-17T06:26:34.479Z,18.75
2022-10-17T06:29:00.839Z,24.00
2022-10-17T06:31:31.966Z,20.30
2022-10-17T06:33:58.222Z,19.27
2022-10-17T06:36:24.553Z,19.42
2022-10-17T06:38:50.973Z,19.52
2022-10-17T06:41:26.717Z,19.77
2022-10-17T06:43:53.946Z,15.80
2022-10-17T06:46:38.492Z,15.82
2022-10-17T06:49:06.971Z,17.50
2022-10-17T06:51:51.219Z,14.75
2022-10-17T06:54:22.198Z,20.27
2022-10-17T06:57:08.734Z,15.73
2022-10-17T06:59:45.697Z,21.55
2022-10-17T07:02:18.044Z,19.58
2022-10-17T07:04:45.832Z,20.45
2022-10-17T07:07:12.192Z,19.38
2022-10-17T07:09:39.811Z,14.70
2022-10-17T07:12:08.467Z,15.85
2022-10-17T07:14:35.461Z,16.27
2022-10-17T07:17:01.795Z,18.75
2022-10-17T07:19:30.961Z,18.83
2022-10-17T07:21:57.272Z,17.27
2022-10-17T07:24:23.871Z,17.23
2022-10-17T07:26:58.719Z,18.38
2022-10-17T07:31:57.404Z,17.30
2022-10-17T07:34:27.390Z,14.40
2022-10-17T07:36:53.926Z,17.73
2022-10-17T07:44:15.194Z,14.98
2022-10-17T07:46:45.566Z,17.58
2022-10-17T07:51:39.816Z,16.98
2022-10-17T07:54:06.476Z,16.17
2022-10-17T07:56:33.247Z,15.10
2022-10-17T07:59:01.653Z,15.95
2022-10-17T08:01:30.190Z,14.65
2022-10-17T08:03:56.449Z,17.45
2022-10-17T08:06:22.755Z,15.98
2022-10-17T08:08:49.034Z,17.35
2022-10-17T08:11:15.669Z,16.08
2022-10-17T08:40:33.714Z,16.67
2022-10-17T08:43:00.047Z,19.52
2022-10-17T08:45:29.738Z,20.75
2022-10-17T08:47:58.819Z,22.10
2022-10-17T08:50:39.423Z,20.58
2022-10-17T08:53:14.792Z,23.40
2022-10-17T08:55:45.602Z,22.50
2022-10-17T08:58:13.879Z,25.20
2022-10-17T09:00:41.752Z,26.00
2022-10-17T09:03:11.179Z,25.13
2022-10-17T09:05:42.640Z,27.33
2022-10-17T09:08:11.971Z,26.80
2022-10-17T09:10:47.194Z,31.70
2022-10-17T09:13:24.788Z,28.02
2022-10-17T09:15:54.158Z,39.63
2022-10-17T09:18:31.315Z,39.15
2022-10-17T09:21:01.328Z,25.52
2022-10-17T09:23:33.875Z,24.05
2022-10-17T09:26:01.063Z,28.35
2022-10-17T09:28:29.601Z,30.52
2022-10-17T09:30:58.815Z,29.50
2022-10-17T09:33:35.443Z,35.00
2022-10-17T09:36:20.578Z,35.83
2022-10-17T09:38:57.171Z,36.00
2022-10-17T09:41:44.744Z,37.65
2022-10-17T09:44:17.809Z,28.85
2022-10-17T09:46:53.336Z,39.42
2022-10-17T09:49:23.077Z,34.13
2022-10-17T09:51:49.334Z,36.83
2022-10-17T09:54:19.716Z,31.45
2022-10-17T09:57:02.966Z,23.73
2022-10-17T09:59:36.784Z,27.38
2022-10-17T10:02:14.612Z,29.15
2022-10-17T10:05:09.799Z,24.67
2022-10-17T10:07:38.022Z,23.67
2022-10-17T10:10:05.929Z,24.30
2022-10-17T10:12:34.004Z,26.85
2022-10-17T10:15:00.321Z,25.52
2022-10-17T10:17:41.857Z,23.77
2022-10-17T10:20:30.045Z,22.30
2022-10-17T10:23:17.638Z,23.48
2022-10-17T10:25:57.330Z,23.08
2022-10-17T10:28:26.135Z,20.42
2022-10-17T10:30:54.237Z,19.35
2022-10-17T10:33:21.842Z,18.85
2022-10-17T10:35:56.042Z,22.92
2022-10-17T10:38:22.698Z,19.85
2022-10-17T10:40:54.292Z,22.75
2022-10-17T10:43:23.608Z,18.88
2022-10-17T10:45:51.105Z,24.60
2022-10-17T10:48:22.206Z,22.00
2022-10-17T10:50:57.649Z,21.02
2022-10-17T10:53:34.082Z,17.33
2022-10-17T10:56:01.337Z,23.25
2022-10-17T10:58:30.728Z,15.80
2022-10-17T11:00:58.719Z,16.92
2022-10-17T11:03:35.866Z,19.52
2022-10-17T11:06:05.634Z,15.10
2022-10-17T11:08:45.734Z,15.32
2022-10-17T11:11:23.738Z,16.27
2022-10-17T11:13:54.235Z,16.95
2022-10-17T11:16:28.779Z,16.73
2022-10-17T11:18:59.606Z,16.98
2022-10-17T11:21:28.715Z,16.60
2022-10-17T11:24:10.731Z,12.57
2022-10-17T11:26:41.852Z,13.98
2022-10-17T11:29:11.837Z,14.82
2022-10-17T11:31:40.912Z,12.52
2022-10-17T11:34:10.279Z,13.18
2022-10-17T11:36:39.467Z,15.80
2022-10-17T11:39:17.697Z,11.88
2022-10-17T11:41:46.210Z,11.98
2022-10-17T11:44:17.111Z,13.00
2022-10-17T11:46:45.189Z,12.63
2022-10-17T11:49:19.908Z,14.05
2022-10-17T11:52:10.856Z,11.35
2022-10-17T11:54:46.007Z,13.15
2022-10-17T11:57:15.297Z,11.23
2022-10-17T11:59:48.534Z,12.65
2022-10-17T12:02:19.795Z,12.52
2022-10-17T12:05:06.845Z,14.05
2022-10-17T12:07:45.003Z,8.75
2022-10-17T12:10:30.017Z,10.70
2022-10-17T12:12:56.402Z,11.50
2022-10-17T12:17:58.127Z,11.88
2022-10-17T12:20:24.560Z,8.70
2022-10-17T12:25:22.436Z,10.05
2022-10-17T12:27:50.053Z,12.55
2022-10-17T12:30:18.329Z,10.82
2022-10-17T12:33:05.760Z,11.32
2022-10-17T12:35:33.798Z,11.32
2022-10-17T12:38:18.506Z,11.57
2022-10-17T12:40:49.072Z,11.02
2022-10-17T12:43:15.523Z,13.20
2022-10-17T12:45:48.099Z,9.98
2022-10-17T12:48:33.190Z,13.05
2022-10-17T12:54:00.427Z,10.10
2022-10-17T12:56:31.503Z,14.07
2022-10-17T12:58:58.745Z,13.63
2022-10-17T13:01:30.436Z,11.32
2022-10-17T13:03:57.163Z,11.27
2022-10-17T13:06:30.890Z,11.55
2022-10-17T13:09:03.902Z,12.13
2022-10-17T13:11:33.756Z,11.80
2022-10-17T13:14:01.830Z,12.68
2022-10-17T13:16:36.985Z,11.32
2022-10-17T13:19:11.710Z,13.80
2022-10-17T13:21:38.033Z,12.50
2022-10-17T13:24:23.404Z,11.43
2022-10-17T13:26:49.681Z,12.25
2022-10-17T13:29:16.153Z,13.40
2022-10-17T13:34:19.107Z,10.35
2022-10-17T13:36:49.976Z,9.57
2022-10-17T13:39:23.142Z,9.55
2022-10-17T13:41:55.011Z,9.15
2022-10-17T13:44:22.974Z,10.63
2022-10-17T13:46:49.605Z,8.98
2022-10-17T13:49:37.050Z,10.50
2022-10-17T13:52:04.540Z,9.07
2022-10-17T13:54:35.549Z,8.25
2022-10-17T13:57:02.316Z,9.70
2022-10-17T13:59:32.468Z,9.20
2022-10-17T14:02:01.517Z,9.43
2022-10-17T14:04:27.975Z,8.60
2022-10-17T14:09:25.503Z,11.05
2022-10-17T14:12:21.411Z,9.30
2022-10-17T14:15:09.172Z,10.52
2022-10-17T14:17:35.925Z,8.60
2022-10-17T14:23:04.463Z,12.60
2022-10-17T14:25:37.265Z,10.02
2022-10-17T14:28:14.419Z,8.80
2022-10-17T14:30:56.897Z,8.82
2022-10-17T14:33:25.889Z,8.05
2022-10-17T14:35:57.349Z,10.00
2022-10-17T14:38:24.232Z,9.98
2022-10-17T14:40:51.922Z,8.77
2022-10-17T14:43:21.214Z,9.13
2022-10-17T14:45:47.907Z,9.45
2022-10-17T14:48:16.386Z,10.80
2022-10-17T14:51:02.879Z,10.77
2022-10-17T14:53:30.141Z,9.60
2022-10-17T14:55:57.423Z,10.70
2022-10-17T14:58:30.700Z,9.48
2022-10-17T15:00:57.649Z,10.02
2022-10-17T15:03:24.243Z,12.43
2022-10-17T15:05:51.251Z,8.73
2022-10-17T15:08:18.428Z,9.50
2022-10-17T15:10:45.471Z,8.77
2022-10-17T15:13:29.614Z,11.73
2022-10-17T15:15:57.462Z,12.15
2022-10-17T15:18:23.720Z,10.15
2022-10-17T15:20:56.245Z,10.95
2022-10-17T15:23:31.438Z,10.13
2022-10-17T15:25:57.703Z,9.25
2022-10-17T15:28:23.985Z,14.18
2022-10-17T15:33:16.818Z,11.25
2022-10-17T15:35:43.836Z,11.23
2022-10-17T15:38:11.558Z,13.40
2022-10-17T15:40:38.503Z,12.07
2022-10-17T15:43:04.869Z,9.23
2022-10-17T15:48:05.831Z,10.90
2022-10-17T15:50:32.427Z,11.73
2022-10-17T15:52:59.124Z,11.77
2022-10-17T15:55:25.473Z,15.88
2022-10-17T15:57:51.843Z,10.50
2022-10-17T16:02:44.643Z,11.55
2022-10-17T16:05:18.150Z,16.75
2022-10-17T16:07:46.481Z,14.70
2022-10-17T16:10:13.311Z,12.02
2022-10-17T16:12:41.262Z,15.43
2022-10-17T16:15:14.813Z,14.00
2022-10-17T16:17:41.516Z,14.32
2022-10-17T16:20:07.930Z,19.83
2022-10-17T16:25:09.604Z,14.38
2022-10-17T16:27:36.604Z,13.75
2022-10-17T16:30:04.432Z,13.48
2022-10-17T16:32:30.939Z,15.40
2022-10-17T16:34:59.315Z,12.68
2022-10-17T16:37:28.386Z,14.77
2022-10-17T16:39:54.725Z,15.68
2022-10-17T16:42:21.195Z,17.88
2022-10-17T16:52:09.491Z,13.75
2022-10-17T16:59:28.530Z,16.63
2022-10-17T17:09:13.683Z,13.45
2022-10-17T17:11:40.264Z,17.08
2022-10-17T17:21:26.954Z,16.38
2022-10-17T17:23:53.661Z,18.90
2022-10-17T17:26:20.991Z,16.48
2022-10-17T17:28:47.714Z,15.65
2022-10-17T17:31:17.843Z,21.15
2022-10-17T17:33:45.933Z,19.30
2022-10-17T17:36:17.293Z,16.65
2022-10-17T17:38:44.085Z,17.02
2022-10-17T17:41:14.579Z,16.75
2022-10-17T17:43:41.656Z,18.10
2022-10-17T17:46:08.563Z,19.33
2022-10-17T17:48:38.535Z,18.85
2022-10-17T17:51:05.791Z,25.88
2022-10-17T17:53:32.520Z,20.48
2022-10-17T17:56:05.855Z,20.67
2022-10-17T17:58:32.685Z,22.75
2022-10-17T18:00:59.035Z,23.63
2022-10-17T18:03:25.462Z,20.20
2022-10-17T18:05:52.161Z,26.95
2022-10-17T18:08:18.434Z,23.98
2022-10-17T18:10:48.852Z,26.45
2022-10-17T18:13:15.195Z,25.63
2022-10-17T18:15:42.163Z,25.13
2022-10-17T18:18:08.426Z,23.52
2022-10-17T18:20:36.001Z,21.00
2022-10-17T18:23:04.149Z,25.27
2022-10-17T18:25:30.727Z,27.38
2022-10-17T18:27:56.991Z,26.55
2022-10-17T18:30:25.963Z,26.52
2022-10-17T18:32:54.321Z,27.92
2022-10-17T18:35:20.578Z,24.08
2022-10-17T18:37:46.880Z,29.17
2022-10-17T18:40:13.179Z,25.60
2022-10-17T18:42:42.382Z,26.45
2022-10-17T18:45:08.966Z,29.13
2022-10-17T18:47:35.231Z,31.42
2022-10-17T18:50:01.517Z,28.95
2022-10-17T18:52:27.851Z,27.63
2022-10-17T18:54:54.313Z,25.35
2022-10-17T18:59:50.151Z,27.80
2022-10-17T19:02:16.614Z,31.92
2022-10-17T19:04:42.947Z,30.73
2022-10-17T19:07:09.255Z,32.70
2022-10-17T19:09:35.504Z,33.20
2022-10-17T19:12:01.790Z,28.50
2022-10-17T19:14:28.607Z,26.75
2022-10-17T19:16:54.879Z,35.55
2022-10-17T19:19:22.822Z,40.58
2022-10-17T19:21:49.562Z,33.47
2022-10-17T19:24:17.554Z,47.05
2022-10-17T19:26:44.417Z,36.05
2022-10-17T19:29:14.471Z,33.00
2022-10-17T19:31:41.036Z,48.10
2022-10-17T19:34:07.327Z,41.22
2022-10-17T19:36:34.124Z,58.13
2022-10-17T19:39:01.646Z,47.63
2022-10-17T19:41:28.150Z,36.53
2022-10-17T19:48:48.465Z,48.00
2022-10-17T19:51:15.621Z,55.42
2022-10-17T19:53:42.391Z,55.95
2022-10-17T19:56:09.346Z,54.60
2022-10-17T19:58:45.053Z,50.45
2022-10-17T20:01:15.455Z,44.97
2022-10-17T20:03:42.112Z,62.38
2022-10-17T20:11:05.142Z,47.38
2022-10-17T20:13:31.433Z,67.90
2022-10-17T20:15:58.246Z,49.33
2022-10-17T20:18:25.051Z,52.83
2022-10-17T20:20:51.369Z,45.15
2022-10-17T20:23:17.713Z,50.67
2022-10-17T20:25:44.107Z,60.53
2022-10-17T20:28:10.378Z,89.20
2022-10-17T20:30:36.663Z,53.92
2022-10-17T20:33:02.973Z,65.20
2022-10-17T20:35:29.285Z,76.75
2022-10-17T20:37:55.648Z,66.53
2022-10-17T20:40:37.149Z,52.05
2022-10-17T20:43:04.477Z,61.33
2022-10-17T20:45:44.210Z,64.13
2022-10-17T20:48:17.676Z,48.35
2022-10-17T20:56:12.200Z,46.20
2022-10-17T20:58:38.509Z,53.78
2022-10-17T21:01:06.159Z,56.95
2022-10-17T21:03:34.496Z,56.65
2022-10-17T21:06:00.768Z,74.40
2022-10-17T21:08:27.035Z,50.90
2022-10-17T21:10:53.290Z,60.25
2022-10-17T21:13:19.571Z,51.70
2022-10-17T21:15:45.823Z,57.78
2022-10-17T21:18:12.124Z,63.40
2022-10-17T21:20:38.410Z,61.90
2022-10-17T21:23:04.674Z,68.50
2022-10-17T21:25:30.950Z,88.10
2022-10-17T21:27:57.207Z,43.88
2022-10-17T21:30:23.502Z,51.28
2022-10-17T21:32:52.687Z,77.93
2022-10-17T21:35:19.230Z,59.80
2022-10-17T21:37:45.504Z,57.38
2022-10-17T21:40:12.228Z,44.58
2022-10-17T21:42:38.525Z,33.58
2022-10-17T21:45:10.678Z,63.42
2022-10-17T21:47:45.602Z,54.15
2022-10-17T21:50:16.069Z,50.22
2022-10-17T21:52:42.330Z,56.28
2022-10-17T21:55:08.684Z,47.15
2022-10-17T21:57:34.966Z,49.67
2022-10-17T22:00:01.251Z,77.75
2022-10-17T22:02:29.091Z,42.38
2022-10-17T22:04:55.598Z,53.38
2022-10-17T22:07:21.928Z,47.33
2022-10-17T22:09:48.210Z,44.15
2022-10-17T22:12:14.477Z,58.42
2022-10-17T22:14:40.858Z,45.47
2022-10-17T22:17:07.137Z,36.55
2022-10-17T22:19:33.429Z,60.45
2022-10-17T22:21:59.751Z,38.95
2022-10-17T22:24:26.024Z,39.53
2022-10-17T22:26:52.328Z,51.42
2022-10-17T22:29:18.846Z,64.82
2022-10-17T22:39:04.101Z,40.10
2022-10-17T22:41:30.373Z,36.65
2022-10-17T22:43:56.651Z,42.80
2022-10-17T22:46:23.045Z,55.97
2022-10-17T22:48:49.343Z,44.53
2022-10-17T22:51:15.865Z,44.50
2022-10-17T22:56:13.225Z,40.15
2022-10-17T22:58:39.771Z,40.47
2022-10-17T23:03:32.619Z,37.75
2022-10-17T23:05:58.945Z,43.13
2022-10-17T23:08:25.607Z,42.92
2022-10-17T23:10:51.953Z,42.17
2022-10-17T23:13:19.713Z,60.60
2022-10-17T23:15:46.034Z,162.63
2022-10-17T23:18:12.355Z,327.52
2022-10-17T23:20:38.662Z,105.45
2022-10-17T23:23:04.983Z,70.30
2022-10-17T23:25:33.226Z,58.85
2022-10-17T23:27:59.481Z,321.98
2022-10-17T23:30:25.746Z,210.00
2022-10-17T23:32:52.834Z,291.05
2022-10-17T23:35:19.110Z,262.48
2022-10-17T23:37:45.361Z,112.90
2022-10-17T23:40:12.023Z,134.23
2022-10-17T23:47:31.294Z,70.45
2022-10-17T23:49:58.232Z,208.65
2022-10-17T23:52:24.602Z,138.27
2022-10-17T23:54:50.881Z,82.78
2022-10-17T23:57:17.176Z,96.25
2022-10-17T23:59:43.518Z,65.32
